Lecoma, Missouri
Current Conditions -  °F | °C
As of 1:58 AM on Monday 26 Jan 2015 (Local Time) from KTBN Reporting Station
Overcast Overcast  
Wind Chill: 22°   Ceiling: 800
Heat Index: 31°   Visibility: 10mi
Dew Point: 31°   Wind: 10mph
Humidity: 99%   Direction: 310°NW
Pressure: 30.04"   Gusts: NA
Location:  37.78°N, 91.73°W
Report Text: KTBN 260758Z AUTO 31009KT 270V340 10SM OVC008 00/M01 A3004 RMK AO2 SLP184 T10051007
Loading
Personal Weather Stations






























Interactive Weather Map New forecast layout! Learn more

10-Day Weather Forecast

Advertisements
Track Severe Weather on mobile